sensor_id;sensor_type;location;lat;lon;timestamp;temperature;humidity
55331;DHT22;58851;42.984;20.336;2023-05-18T00:00:44;384.40;128.00
55331;DHT22;58851;42.984;20.336;2023-05-18T00:03:10;384.40;128.00
55331;DHT22;58851;42.984;20.336;2023-05-18T00:05:35;384.30;256.00
55331;DHT22;58851;42.984;20.336;2023-05-18T00:08:18;384.40;128.00
55331;DHT22;58851;42.984;20.336;2023-05-18T00:10:49;384.30;128.00
55331;DHT22;58851;42.984;20.336;2023-05-18T00:13:35;384.30;153.60
55331;DHT22;58851;42.984;20.336;2023-05-18T00:16:01;384.20;128.00
55331;DHT22;58851;42.984;20.336;2023-05-18T00:18:27;384.10;435.20
55331;DHT22;58851;42.984;20.336;2023-05-18T00:20:53;384.20;204.80
55331;DHT22;58851;42.984;20.336;2023-05-18T00:23:28;384.30;128.00
55331;DHT22;58851;42.984;20.336;2023-05-18T00:26:10;384.40;128.00
55331;DHT22;58851;42.984;20.336;2023-05-18T00:28:36;384.40;128.00
55331;DHT22;58851;42.984;20.336;2023-05-18T00:31:01;384.30;128.00
55331;DHT22;58851;42.984;20.336;2023-05-18T00:33:27;384.30;204.80
55331;DHT22;58851;42.984;20.336;2023-05-18T00:35:55;384.30;128.00
55331;DHT22;58851;42.984;20.336;2023-05-18T00:38:21;384.30;128.00
55331;DHT22;58851;42.984;20.336;2023-05-18T00:40:47;384.30;281.60
55331;DHT22;58851;42.984;20.336;2023-05-18T00:43:13;384.30;307.20
55331;DHT22;58851;42.984;20.336;2023-05-18T00:46:07;384.20;435.20
55331;DHT22;58851;42.984;20.336;2023-05-18T00:48:50;384.20;486.40
55331;DHT22;58851;42.984;20.336;2023-05-18T00:51:17;384.30;486.40
55331;DHT22;58851;42.984;20.336;2023-05-18T00:53:43;384.30;435.20
55331;DHT22;58851;42.984;20.336;2023-05-18T00:56:09;384.20;512.00
55331;DHT22;58851;42.984;20.336;2023-05-18T00:58:38;384.10;128.00
55331;DHT22;58851;42.984;20.336;2023-05-18T01:01:04;384.00;128.00
55331;DHT22;58851;42.984;20.336;2023-05-18T01:03:32;384.00;128.00
55331;DHT22;58851;42.984;20.336;2023-05-18T01:05:58;384.00;128.00
55331;DHT22;58851;42.984;20.336;2023-05-18T01:08:25;359.30;128.00
55331;DHT22;58851;42.984;20.336;2023-05-18T01:10:57;359.30;128.00
55331;DHT22;58851;42.984;20.336;2023-05-18T01:13:30;359.30;128.00
55331;DHT22;58851;42.984;20.336;2023-05-18T01:15:59;359.30;128.00
55331;DHT22;58851;42.984;20.336;2023-05-18T01:19:04;359.30;128.00
55331;DHT22;58851;42.984;20.336;2023-05-18T01:27:01;384.00;128.00
55331;DHT22;58851;42.984;20.336;2023-05-18T01:29:28;359.20;128.00
55331;DHT22;58851;42.984;20.336;2023-05-18T01:31:56;359.20;128.00
55331;DHT22;58851;42.984;20.336;2023-05-18T01:34:22;359.30;128.00
55331;DHT22;58851;42.984;20.336;2023-05-18T01:36:48;384.00;128.00
55331;DHT22;58851;42.984;20.336;2023-05-18T01:39:14;359.30;128.00
55331;DHT22;58851;42.984;20.336;2023-05-18T01:42:00;359.30;128.00
55331;DHT22;58851;42.984;20.336;2023-05-18T01:44:50;359.10;128.00
55331;DHT22;58851;42.984;20.336;2023-05-18T01:47:18;359.20;128.00
55331;DHT22;58851;42.984;20.336;2023-05-18T01:50:04;359.20;128.00
55331;DHT22;58851;42.984;20.336;2023-05-18T01:52:38;359.30;128.00
55331;DHT22;58851;42.984;20.336;2023-05-18T01:55:05;359.10;128.00
55331;DHT22;58851;42.984;20.336;2023-05-18T01:57:32;359.10;128.00
55331;DHT22;58851;42.984;20.336;2023-05-18T02:00:00;359.00;128.00
55331;DHT22;58851;42.984;20.336;2023-05-18T02:02:27;359.00;128.00
55331;DHT22;58851;42.984;20.336;2023-05-18T02:04:53;359.00;128.00
55331;DHT22;58851;42.984;20.336;2023-05-18T02:07:19;359.10;128.00
55331;DHT22;58851;42.984;20.336;2023-05-18T02:09:45;359.00;128.00
55331;DHT22;58851;42.984;20.336;2023-05-18T02:12:11;359.00;128.00
55331;DHT22;58851;42.984;20.336;2023-05-18T02:14:37;359.10;128.00
55331;DHT22;58851;42.984;20.336;2023-05-18T02:17:03;359.10;128.00
55331;DHT22;58851;42.984;20.336;2023-05-18T02:19:31;359.10;128.00
55331;DHT22;58851;42.984;20.336;2023-05-18T02:21:58;359.10;128.00
55331;DHT22;58851;42.984;20.336;2023-05-18T02:24:24;359.00;128.00
55331;DHT22;58851;42.984;20.336;2023-05-18T02:26:50;358.80;128.00
55331;DHT22;58851;42.984;20.336;2023-05-18T02:29:16;358.90;128.00
55331;DHT22;58851;42.984;20.336;2023-05-18T02:31:42;358.90;128.00
55331;DHT22;58851;42.984;20.336;2023-05-18T02:34:08;358.90;128.00
55331;DHT22;58851;42.984;20.336;2023-05-18T02:36:36;358.90;128.00
55331;DHT22;58851;42.984;20.336;2023-05-18T02:39:05;358.90;128.00
55331;DHT22;58851;42.984;20.336;2023-05-18T02:41:35;358.80;128.00
55331;DHT22;58851;42.984;20.336;2023-05-18T02:44:01;358.90;128.00
55331;DHT22;58851;42.984;20.336;2023-05-18T02:46:28;359.00;128.00
55331;DHT22;58851;42.984;20.336;2023-05-18T02:48:54;358.90;128.00
55331;DHT22;58851;42.984;20.336;2023-05-18T02:51:20;358.80;128.00
55331;DHT22;58851;42.984;20.336;2023-05-18T02:53:51;358.90;128.00
55331;DHT22;58851;42.984;20.336;2023-05-18T02:56:17;358.90;128.00
55331;DHT22;58851;42.984;20.336;2023-05-18T02:58:43;358.90;128.00
55331;DHT22;58851;42.984;20.336;2023-05-18T03:01:09;358.90;460.80
55331;DHT22;58851;42.984;20.336;2023-05-18T03:03:38;358.90;256.00
55331;DHT22;58851;42.984;20.336;2023-05-18T03:06:07;358.90;537.60
55331;DHT22;58851;42.984;20.336;2023-05-18T03:08:33;358.90;384.00
55331;DHT22;58851;42.984;20.336;2023-05-18T03:11:01;358.90;128.00
55331;DHT22;58851;42.984;20.336;2023-05-18T03:13:27;358.80;128.00
55331;DHT22;58851;42.984;20.336;2023-05-18T03:15:53;358.60;128.00
55331;DHT22;58851;42.984;20.336;2023-05-18T03:18:21;358.60;128.00
55331;DHT22;58851;42.984;20.336;2023-05-18T03:20:47;358.70;128.00
55331;DHT22;58851;42.984;20.336;2023-05-18T03:23:17;358.60;128.00
55331;DHT22;58851;42.984;20.336;2023-05-18T03:25:43;358.40;128.00
55331;DHT22;58851;42.984;20.336;2023-05-18T03:28:09;333.70;128.00
55331;DHT22;58851;42.984;20.336;2023-05-18T03:30:35;333.60;128.00
55331;DHT22;58851;42.984;20.336;2023-05-18T03:33:01;333.60;128.00
55331;DHT22;58851;42.984;20.336;2023-05-18T03:35:27;333.70;128.00
55331;DHT22;58851;42.984;20.336;2023-05-18T03:37:53;333.70;128.00
55331;DHT22;58851;42.984;20.336;2023-05-18T03:40:20;333.70;128.00
55331;DHT22;58851;42.984;20.336;2023-05-18T03:42:46;358.40;128.00
55331;DHT22;58851;42.984;20.336;2023-05-18T03:45:11;358.40;128.00
55331;DHT22;58851;42.984;20.336;2023-05-18T03:47:38;358.40;128.00
55331;DHT22;58851;42.984;20.336;2023-05-18T03:50:05;358.40;128.00
55331;DHT22;58851;42.984;20.336;2023-05-18T03:52:32;333.70;128.00
55331;DHT22;58851;42.984;20.336;2023-05-18T03:54:59;333.70;128.00
55331;DHT22;58851;42.984;20.336;2023-05-18T03:57:30;333.70;128.00
55331;DHT22;58851;42.984;20.336;2023-05-18T03:59:56;358.40;128.00
55331;DHT22;58851;42.984;20.336;2023-05-18T04:02:23;333.70;128.00
55331;DHT22;58851;42.984;20.336;2023-05-18T04:04:49;358.40;128.00
55331;DHT22;58851;42.984;20.336;2023-05-18T04:07:18;333.70;128.00
55331;DHT22;58851;42.984;20.336;2023-05-18T04:09:49;333.60;128.00
55331;DHT22;58851;42.984;20.336;2023-05-18T04:12:15;333.50;128.00
55331;DHT22;58851;42.984;20.336;2023-05-18T04:14:41;333.40;128.00
55331;DHT22;58851;42.984;20.336;2023-05-18T04:17:07;333.10;128.00
55331;DHT22;58851;42.984;20.336;2023-05-18T04:19:33;333.00;128.00
55331;DHT22;58851;42.984;20.336;2023-05-18T04:22:00;333.10;128.00
55331;DHT22;58851;42.984;20.336;2023-05-18T04:24:30;333.10;128.00
55331;DHT22;58851;42.984;20.336;2023-05-18T04:26:57;333.10;128.00
55331;DHT22;58851;42.984;20.336;2023-05-18T04:29:24;332.90;128.00
55331;DHT22;58851;42.984;20.336;2023-05-18T04:31:49;332.80;128.00
55331;DHT22;58851;42.984;20.336;2023-05-18T04:34:15;332.80;128.00
55331;DHT22;58851;42.984;20.336;2023-05-18T04:36:44;332.90;128.00
55331;DHT22;58851;42.984;20.336;2023-05-18T04:39:10;332.80;128.00
55331;DHT22;58851;42.984;20.336;2023-05-18T04:41:36;308.10;128.00
55331;DHT22;58851;42.984;20.336;2023-05-18T04:44:02;332.80;153.60
55331;DHT22;58851;42.984;20.336;2023-05-18T04:46:29;333.00;128.00
55331;DHT22;58851;42.984;20.336;2023-05-18T04:48:55;333.20;128.00
55331;DHT22;58851;42.984;20.336;2023-05-18T04:51:23;333.40;128.00
55331;DHT22;58851;42.984;20.336;2023-05-18T04:53:52;333.50;128.00
55331;DHT22;58851;42.984;20.336;2023-05-18T04:56:20;333.30;128.00
55331;DHT22;58851;42.984;20.336;2023-05-18T04:58:47;333.50;128.00
55331;DHT22;58851;42.984;20.336;2023-05-18T05:01:14;333.50;128.00
55331;DHT22;58851;42.984;20.336;2023-05-18T05:03:41;333.60;128.00
55331;DHT22;58851;42.984;20.336;2023-05-18T05:06:07;333.60;128.00
55331;DHT22;58851;42.984;20.336;2023-05-18T05:08:33;358.40;128.00
55331;DHT22;58851;42.984;20.336;2023-05-18T05:11:00;358.50;128.00
55331;DHT22;58851;42.984;20.336;2023-05-18T05:13:26;358.50;128.00
55331;DHT22;58851;42.984;20.336;2023-05-18T05:15:52;358.50;128.00
55331;DHT22;58851;42.984;20.336;2023-05-18T05:18:18;358.40;128.00
55331;DHT22;58851;42.984;20.336;2023-05-18T05:20:44;333.60;128.00
55331;DHT22;58851;42.984;20.336;2023-05-18T05:23:10;333.60;128.00
55331;DHT22;58851;42.984;20.336;2023-05-18T05:25:35;333.70;128.00
55331;DHT22;58851;42.984;20.336;2023-05-18T05:28:01;358.40;128.00
55331;DHT22;58851;42.984;20.336;2023-05-18T05:30:27;358.40;128.00
55331;DHT22;58851;42.984;20.336;2023-05-18T05:32:53;358.40;128.00
55331;DHT22;58851;42.984;20.336;2023-05-18T05:35:19;358.40;128.00
55331;DHT22;58851;42.984;20.336;2023-05-18T05:37:45;358.40;128.00
55331;DHT22;58851;42.984;20.336;2023-05-18T05:40:11;358.40;128.00
55331;DHT22;58851;42.984;20.336;2023-05-18T05:42:37;358.40;128.00
55331;DHT22;58851;42.984;20.336;2023-05-18T05:45:03;358.40;128.00
55331;DHT22;58851;42.984;20.336;2023-05-18T05:47:30;358.50;128.00
55331;DHT22;58851;42.984;20.336;2023-05-18T05:49:56;358.60;128.00
55331;DHT22;58851;42.984;20.336;2023-05-18T05:52:22;358.60;128.00
55331;DHT22;58851;42.984;20.336;2023-05-18T05:54:47;358.60;128.00
55331;DHT22;58851;42.984;20.336;2023-05-18T05:57:13;358.70;128.00
55331;DHT22;58851;42.984;20.336;2023-05-18T05:59:39;358.60;128.00
55331;DHT22;58851;42.984;20.336;2023-05-18T06:02:05;358.50;128.00
55331;DHT22;58851;42.984;20.336;2023-05-18T06:04:31;358.50;128.00
55331;DHT22;58851;42.984;20.336;2023-05-18T06:06:57;358.70;128.00
55331;DHT22;58851;42.984;20.336;2023-05-18T06:09:23;358.80;128.00
55331;DHT22;58851;42.984;20.336;2023-05-18T06:11:48;358.80;128.00
55331;DHT22;58851;42.984;20.336;2023-05-18T06:14:14;358.70;128.00
55331;DHT22;58851;42.984;20.336;2023-05-18T06:16:40;358.80;128.00
55331;DHT22;58851;42.984;20.336;2023-05-18T06:19:06;358.80;128.00
55331;DHT22;58851;42.984;20.336;2023-05-18T06:21:32;358.80;128.00
55331;DHT22;58851;42.984;20.336;2023-05-18T06:23:58;358.60;128.00
55331;DHT22;58851;42.984;20.336;2023-05-18T06:26:25;358.40;128.00
55331;DHT22;58851;42.984;20.336;2023-05-18T06:28:51;333.40;128.00
55331;DHT22;58851;42.984;20.336;2023-05-18T06:31:17;333.30;128.00
55331;DHT22;58851;42.984;20.336;2023-05-18T06:33:43;333.30;128.00
55331;DHT22;58851;42.984;20.336;2023-05-18T06:36:09;333.40;128.00
55331;DHT22;58851;42.984;20.336;2023-05-18T06:38:34;333.40;128.00
55331;DHT22;58851;42.984;20.336;2023-05-18T06:41:00;333.50;128.00
55331;DHT22;58851;42.984;20.336;2023-05-18T06:43:26;333.60;128.00
55331;DHT22;58851;42.984;20.336;2023-05-18T06:45:54;358.50;128.00
55331;DHT22;58851;42.984;20.336;2023-05-18T06:48:22;358.60;128.00
55331;DHT22;58851;42.984;20.336;2023-05-18T06:50:48;358.60;128.00
55331;DHT22;58851;42.984;20.336;2023-05-18T06:53:14;358.60;128.00
55331;DHT22;58851;42.984;20.336;2023-05-18T06:55:40;358.40;128.00
55331;DHT22;58851;42.984;20.336;2023-05-18T06:58:06;358.60;128.00
55331;DHT22;58851;42.984;20.336;2023-05-18T07:00:32;358.50;128.00
55331;DHT22;58851;42.984;20.336;2023-05-18T07:02:58;358.60;128.00
55331;DHT22;58851;42.984;20.336;2023-05-18T07:05:24;358.60;128.00
55331;DHT22;58851;42.984;20.336;2023-05-18T07:07:50;358.50;128.00
55331;DHT22;58851;42.984;20.336;2023-05-18T07:10:16;358.40;128.00
55331;DHT22;58851;42.984;20.336;2023-05-18T07:12:41;358.40;128.00
55331;DHT22;58851;42.984;20.336;2023-05-18T07:15:07;358.40;128.00
55331;DHT22;58851;42.984;20.336;2023-05-18T07:17:33;358.60;128.00
55331;DHT22;58851;42.984;20.336;2023-05-18T07:19:59;358.50;128.00
55331;DHT22;58851;42.984;20.336;2023-05-18T07:22:25;358.50;128.00
55331;DHT22;58851;42.984;20.336;2023-05-18T07:24:51;358.60;128.00
55331;DHT22;58851;42.984;20.336;2023-05-18T07:27:16;358.70;128.00
55331;DHT22;58851;42.984;20.336;2023-05-18T07:29:42;358.60;128.00
55331;DHT22;58851;42.984;20.336;2023-05-18T07:32:08;358.80;128.00
55331;DHT22;58851;42.984;20.336;2023-05-18T07:34:34;358.80;128.00
55331;DHT22;58851;42.984;20.336;2023-05-18T07:36:59;358.80;128.00
55331;DHT22;58851;42.984;20.336;2023-05-18T07:39:25;358.80;128.00
55331;DHT22;58851;42.984;20.336;2023-05-18T07:41:54;359.00;128.00
55331;DHT22;58851;42.984;20.336;2023-05-18T07:44:20;359.10;640.00
55331;DHT22;58851;42.984;20.336;2023-05-18T07:46:46;384.00;128.00
55331;DHT22;58851;42.984;20.336;2023-05-18T07:49:12;359.30;128.00
55331;DHT22;58851;42.984;20.336;2023-05-18T07:51:37;359.20;128.00
55331;DHT22;58851;42.984;20.336;2023-05-18T07:54:03;359.20;358.40
55331;DHT22;58851;42.984;20.336;2023-05-18T07:56:29;384.00;128.00
55331;DHT22;58851;42.984;20.336;2023-05-18T07:58:56;384.20;128.00
55331;DHT22;58851;42.984;20.336;2023-05-18T08:01:21;359.20;128.00
55331;DHT22;58851;42.984;20.336;2023-05-18T08:03:52;359.00;128.00
55331;DHT22;58851;42.984;20.336;2023-05-18T08:06:19;359.00;128.00
55331;DHT22;58851;42.984;20.336;2023-05-18T08:08:45;359.00;128.00
55331;DHT22;58851;42.984;20.336;2023-05-18T08:11:11;359.30;128.00
55331;DHT22;58851;42.984;20.336;2023-05-18T08:13:37;359.20;588.80
55331;DHT22;58851;42.984;20.336;2023-05-18T08:16:03;358.90;128.00
55331;DHT22;58851;42.984;20.336;2023-05-18T08:18:29;358.80;128.00
55331;DHT22;58851;42.984;20.336;2023-05-18T08:20:55;358.80;128.00
55331;DHT22;58851;42.984;20.336;2023-05-18T08:23:23;358.80;128.00
55331;DHT22;58851;42.984;20.336;2023-05-18T08:25:49;359.00;128.00
55331;DHT22;58851;42.984;20.336;2023-05-18T08:28:15;359.00;563.20
55331;DHT22;58851;42.984;20.336;2023-05-18T08:30:41;359.00;128.00
55331;DHT22;58851;42.984;20.336;2023-05-18T08:33:07;359.00;128.00
55331;DHT22;58851;42.984;20.336;2023-05-18T08:35:33;358.90;128.00
55331;DHT22;58851;42.984;20.336;2023-05-18T08:37:59;358.80;128.00
55331;DHT22;58851;42.984;20.336;2023-05-18T08:43:21;359.10;128.00
55331;DHT22;58851;42.984;20.336;2023-05-18T08:45:54;359.20;128.00
55331;DHT22;58851;42.984;20.336;2023-05-18T08:48:23;359.30;128.00
55331;DHT22;58851;42.984;20.336;2023-05-18T08:50:51;384.00;128.00
55331;DHT22;58851;42.984;20.336;2023-05-18T08:53:20;359.20;128.00
55331;DHT22;58851;42.984;20.336;2023-05-18T08:55:49;359.00;128.00
55331;DHT22;58851;42.984;20.336;2023-05-18T08:58:20;359.30;128.00
55331;DHT22;58851;42.984;20.336;2023-05-18T09:00:48;359.30;332.80
55331;DHT22;58851;42.984;20.336;2023-05-18T09:03:18;359.30;128.00
55331;DHT22;58851;42.984;20.336;2023-05-18T09:05:45;359.20;512.00
55331;DHT22;58851;42.984;20.336;2023-05-18T09:08:11;384.00;128.00
55331;DHT22;58851;42.984;20.336;2023-05-18T09:10:38;384.00;281.60
55331;DHT22;58851;42.984;20.336;2023-05-18T09:13:05;384.00;128.00
55331;DHT22;58851;42.984;20.336;2023-05-18T09:15:32;384.20;332.80
55331;DHT22;58851;42.984;20.336;2023-05-18T09:17:59;359.30;588.80
55331;DHT22;58851;42.984;20.336;2023-05-18T09:20:25;359.20;384.00
55331;DHT22;58851;42.984;20.336;2023-05-18T09:22:52;359.30;128.00
55331;DHT22;58851;42.984;20.336;2023-05-18T09:25:20;359.10;128.00
55331;DHT22;58851;42.984;20.336;2023-05-18T09:27:47;384.00;128.00
55331;DHT22;58851;42.984;20.336;2023-05-18T09:30:13;384.10;128.00
55331;DHT22;58851;42.984;20.336;2023-05-18T09:32:38;384.10;128.00
55331;DHT22;58851;42.984;20.336;2023-05-18T09:35:06;384.00;128.00
55331;DHT22;58851;42.984;20.336;2023-05-18T09:37:32;359.20;128.00
55331;DHT22;58851;42.984;20.336;2023-05-18T09:40:03;358.90;128.00
55331;DHT22;58851;42.984;20.336;2023-05-18T09:42:38;358.80;128.00
55331;DHT22;58851;42.984;20.336;2023-05-18T09:45:17;359.00;128.00
55331;DHT22;58851;42.984;20.336;2023-05-18T09:47:44;359.10;128.00
55331;DHT22;58851;42.984;20.336;2023-05-18T09:50:10;358.90;128.00
55331;DHT22;58851;42.984;20.336;2023-05-18T09:52:43;359.20;128.00
55331;DHT22;58851;42.984;20.336;2023-05-18T09:55:14;384.10;128.00
55331;DHT22;58851;42.984;20.336;2023-05-18T09:57:45;384.30;128.00
55331;DHT22;58851;42.984;20.336;2023-05-18T10:00:20;384.50;128.00
55331;DHT22;58851;42.984;20.336;2023-05-18T10:02:48;384.60;614.40
55331;DHT22;58851;42.984;20.336;2023-05-18T10:05:25;384.60;563.20
55331;DHT22;58851;42.984;20.336;2023-05-18T10:07:59;384.70;435.20
55331;DHT22;58851;42.984;20.336;2023-05-18T10:10:26;384.60;128.00
55331;DHT22;58851;42.984;20.336;2023-05-18T10:12:55;384.70;332.80
55331;DHT22;58851;42.984;20.336;2023-05-18T10:15:23;384.70;563.20
55331;DHT22;58851;42.984;20.336;2023-05-18T10:17:50;384.80;128.00
55331;DHT22;58851;42.984;20.336;2023-05-18T10:20:21;384.80;128.00
55331;DHT22;58851;42.984;20.336;2023-05-18T10:22:49;409.60;128.00
55331;DHT22;58851;42.984;20.336;2023-05-18T10:25:20;384.80;128.00
55331;DHT22;58851;42.984;20.336;2023-05-18T10:27:53;384.90;358.40
55331;DHT22;58851;42.984;20.336;2023-05-18T10:30:21;384.80;128.00
55331;DHT22;58851;42.984;20.336;2023-05-18T10:32:47;384.70;307.20
55331;DHT22;58851;42.984;20.336;2023-05-18T10:35:13;384.80;307.20
55331;DHT22;58851;42.984;20.336;2023-05-18T10:37:44;384.90;153.60
55331;DHT22;58851;42.984;20.336;2023-05-18T10:40:13;384.90;128.00
55331;DHT22;58851;42.984;20.336;2023-05-18T10:42:41;384.80;128.00
55331;DHT22;58851;42.984;20.336;2023-05-18T10:45:09;384.60;128.00
55331;DHT22;58851;42.984;20.336;2023-05-18T10:47:39;384.50;128.00
55331;DHT22;58851;42.984;20.336;2023-05-18T10:50:08;384.60;128.00
55331;DHT22;58851;42.984;20.336;2023-05-18T10:52:36;384.50;128.00
55331;DHT22;58851;42.984;20.336;2023-05-18T10:55:02;384.50;128.00
55331;DHT22;58851;42.984;20.336;2023-05-18T10:57:38;384.50;281.60
55331;DHT22;58851;42.984;20.336;2023-05-18T11:00:06;384.50;128.00
55331;DHT22;58851;42.984;20.336;2023-05-18T11:02:33;384.30;128.00
55331;DHT22;58851;42.984;20.336;2023-05-18T11:05:04;384.30;358.40
55331;DHT22;58851;42.984;20.336;2023-05-18T11:07:30;384.50;128.00
55331;DHT22;58851;42.984;20.336;2023-05-18T11:10:00;384.50;588.80
55331;DHT22;58851;42.984;20.336;2023-05-18T11:12:26;384.60;358.40
55331;DHT22;58851;42.984;20.336;2023-05-18T11:14:53;384.60;128.00
55331;DHT22;58851;42.984;20.336;2023-05-18T11:17:24;384.70;128.00
55331;DHT22;58851;42.984;20.336;2023-05-18T11:23:10;384.80;128.00
55331;DHT22;58851;42.984;20.336;2023-05-18T11:25:41;384.70;128.00
55331;DHT22;58851;42.984;20.336;2023-05-18T11:28:10;384.50;128.00
55331;DHT22;58851;42.984;20.336;2023-05-18T11:33:24;384.50;230.40
55331;DHT22;58851;42.984;20.336;2023-05-18T11:36:11;384.40;281.60
55331;DHT22;58851;42.984;20.336;2023-05-18T11:39:05;384.20;230.40
55331;DHT22;58851;42.984;20.336;2023-05-18T11:44:05;384.30;256.00
55331;DHT22;58851;42.984;20.336;2023-05-18T11:46:35;384.30;153.60
55331;DHT22;58851;42.984;20.336;2023-05-18T11:49:03;384.30;128.00
55331;DHT22;58851;42.984;20.336;2023-05-18T11:51:32;384.30;512.00
55331;DHT22;58851;42.984;20.336;2023-05-18T11:53:59;384.40;614.40
55331;DHT22;58851;42.984;20.336;2023-05-18T11:56:25;384.60;128.00
55331;DHT22;58851;42.984;20.336;2023-05-18T11:59:10;384.60;435.20
55331;DHT22;58851;42.984;20.336;2023-05-18T12:01:37;384.70;128.00
55331;DHT22;58851;42.984;20.336;2023-05-18T12:04:03;384.70;128.00
55331;DHT22;58851;42.984;20.336;2023-05-18T12:06:30;384.70;384.00
55331;DHT22;58851;42.984;20.336;2023-05-18T12:08:57;384.60;128.00
55331;DHT22;58851;42.984;20.336;2023-05-18T12:11:24;384.50;128.00
55331;DHT22;58851;42.984;20.336;2023-05-18T12:13:51;384.50;153.60
55331;DHT22;58851;42.984;20.336;2023-05-18T12:16:20;384.50;128.00
55331;DHT22;58851;42.984;20.336;2023-05-18T12:18:49;384.50;128.00
55331;DHT22;58851;42.984;20.336;2023-05-18T12:21:20;384.50;128.00
55331;DHT22;58851;42.984;20.336;2023-05-18T12:23:48;384.70;128.00
55331;DHT22;58851;42.984;20.336;2023-05-18T12:26:15;384.80;179.20
55331;DHT22;58851;42.984;20.336;2023-05-18T12:28:42;384.70;128.00
55331;DHT22;58851;42.984;20.336;2023-05-18T12:31:08;384.80;128.00
55331;DHT22;58851;42.984;20.336;2023-05-18T12:33:34;384.90;128.00
55331;DHT22;58851;42.984;20.336;2023-05-18T12:36:01;409.60;128.00
55331;DHT22;58851;42.984;20.336;2023-05-18T12:38:27;384.80;128.00
55331;DHT22;58851;42.984;20.336;2023-05-18T12:40:52;409.60;128.00
55331;DHT22;58851;42.984;20.336;2023-05-18T12:43:20;384.80;128.00
55331;DHT22;58851;42.984;20.336;2023-05-18T12:45:46;384.90;128.00
55331;DHT22;58851;42.984;20.336;2023-05-18T12:48:12;384.90;128.00
55331;DHT22;58851;42.984;20.336;2023-05-18T12:50:49;384.90;128.00
55331;DHT22;58851;42.984;20.336;2023-05-18T12:53:17;384.90;128.00
55331;DHT22;58851;42.984;20.336;2023-05-18T12:55:43;384.70;128.00
55331;DHT22;58851;42.984;20.336;2023-05-18T12:58:12;384.70;128.00
55331;DHT22;58851;42.984;20.336;2023-05-18T13:00:44;384.70;128.00
55331;DHT22;58851;42.984;20.336;2023-05-18T13:03:17;384.70;128.00
55331;DHT22;58851;42.984;20.336;2023-05-18T13:06:02;384.70;128.00
55331;DHT22;58851;42.984;20.336;2023-05-18T13:08:28;384.60;128.00
55331;DHT22;58851;42.984;20.336;2023-05-18T13:11:02;384.50;128.00
55331;DHT22;58851;42.984;20.336;2023-05-18T13:13:29;384.50;128.00
55331;DHT22;58851;42.984;20.336;2023-05-18T13:15:55;384.50;153.60
55331;DHT22;58851;42.984;20.336;2023-05-18T13:18:26;384.50;128.00
55331;DHT22;58851;42.984;20.336;2023-05-18T13:20:54;384.50;128.00
55331;DHT22;58851;42.984;20.336;2023-05-18T13:23:25;384.50;128.00
55331;DHT22;58851;42.984;20.336;2023-05-18T13:25:51;384.50;128.00
55331;DHT22;58851;42.984;20.336;2023-05-18T13:28:19;384.30;128.00
55331;DHT22;58851;42.984;20.336;2023-05-18T13:30:46;384.30;128.00
55331;DHT22;58851;42.984;20.336;2023-05-18T13:33:14;384.30;128.00
55331;DHT22;58851;42.984;20.336;2023-05-18T13:35:42;384.30;128.00
55331;DHT22;58851;42.984;20.336;2023-05-18T13:38:12;384.20;128.00
55331;DHT22;58851;42.984;20.336;2023-05-18T13:40:39;384.30;128.00
55331;DHT22;58851;42.984;20.336;2023-05-18T13:43:05;384.10;128.00
55331;DHT22;58851;42.984;20.336;2023-05-18T13:45:34;384.30;128.00
55331;DHT22;58851;42.984;20.336;2023-05-18T13:48:00;384.20;128.00
55331;DHT22;58851;42.984;20.336;2023-05-18T13:50:28;384.10;128.00
55331;DHT22;58851;42.984;20.336;2023-05-18T13:52:53;384.00;128.00
55331;DHT22;58851;42.984;20.336;2023-05-18T13:55:19;384.00;128.00
55331;DHT22;58851;42.984;20.336;2023-05-18T13:57:45;384.10;128.00
55331;DHT22;58851;42.984;20.336;2023-05-18T14:00:11;384.10;128.00
55331;DHT22;58851;42.984;20.336;2023-05-18T14:02:41;384.00;128.00
55331;DHT22;58851;42.984;20.336;2023-05-18T14:05:09;384.10;230.40
55331;DHT22;58851;42.984;20.336;2023-05-18T14:07:43;384.00;128.00
55331;DHT22;58851;42.984;20.336;2023-05-18T14:10:10;384.10;128.00
55331;DHT22;58851;42.984;20.336;2023-05-18T14:12:37;384.10;128.00
55331;DHT22;58851;42.984;20.336;2023-05-18T14:15:03;384.00;230.40
55331;DHT22;58851;42.984;20.336;2023-05-18T14:17:30;384.00;128.00
55331;DHT22;58851;42.984;20.336;2023-05-18T14:19:58;384.10;230.40
55331;DHT22;58851;42.984;20.336;2023-05-18T14:22:24;384.00;128.00
55331;DHT22;58851;42.984;20.336;2023-05-18T14:24:55;359.30;128.00
55331;DHT22;58851;42.984;20.336;2023-05-18T14:27:20;359.20;128.00
55331;DHT22;58851;42.984;20.336;2023-05-18T14:29:48;359.10;204.80
55331;DHT22;58851;42.984;20.336;2023-05-18T14:32:14;359.00;537.60
55331;DHT22;58851;42.984;20.336;2023-05-18T14:34:39;359.00;128.00
55331;DHT22;58851;42.984;20.336;2023-05-18T14:37:05;359.00;230.40
55331;DHT22;58851;42.984;20.336;2023-05-18T14:39:31;359.00;179.20
55331;DHT22;58851;42.984;20.336;2023-05-18T14:41:57;359.00;640.00
55331;DHT22;58851;42.984;20.336;2023-05-18T14:44:23;358.90;307.20
55331;DHT22;58851;42.984;20.336;2023-05-18T14:46:48;359.00;384.00
55331;DHT22;58851;42.984;20.336;2023-05-18T14:49:15;358.80;128.00
55331;DHT22;58851;42.984;20.336;2023-05-18T14:51:40;358.70;128.00
55331;DHT22;58851;42.984;20.336;2023-05-18T14:54:06;358.70;128.00
55331;DHT22;58851;42.984;20.336;2023-05-18T14:56:32;358.70;128.00
55331;DHT22;58851;42.984;20.336;2023-05-18T14:58:58;358.60;128.00
55331;DHT22;58851;42.984;20.336;2023-05-18T15:01:24;358.50;128.00
55331;DHT22;58851;42.984;20.336;2023-05-18T15:03:50;358.60;128.00
55331;DHT22;58851;42.984;20.336;2023-05-18T15:06:15;358.40;128.00
55331;DHT22;58851;42.984;20.336;2023-05-18T15:08:41;358.50;128.00